createdAt,value
2022-12-14T00:02:12.225Z,5.57
2022-12-14T00:04:41.873Z,5.00
2022-12-14T00:07:13.937Z,5.50
2022-12-14T00:09:43.423Z,5.30
2022-12-14T00:12:12.861Z,4.80
2022-12-14T00:14:42.624Z,4.87
2022-12-14T00:17:12.081Z,5.13
2022-12-14T00:19:41.517Z,5.03
2022-12-14T00:22:15.046Z,4.87
2022-12-14T00:24:45.052Z,4.07
2022-12-14T00:27:14.752Z,4.97
2022-12-14T00:29:45.086Z,5.03
2022-12-14T00:32:15.566Z,4.30
2022-12-14T00:34:45.035Z,4.90
2022-12-14T00:37:17.163Z,5.20
2022-12-14T00:39:46.718Z,4.60
2022-12-14T00:42:16.182Z,5.00
2022-12-14T00:44:45.652Z,5.17
2022-12-14T00:47:15.071Z,5.27
2022-12-14T00:49:44.688Z,6.20
2022-12-14T00:52:20.853Z,5.63
2022-12-14T00:54:50.706Z,5.00
2022-12-14T00:57:20.223Z,5.43
2022-12-14T00:59:49.695Z,4.67
2022-12-14T01:02:19.265Z,5.10
2022-12-14T01:04:48.769Z,5.50
2022-12-14T01:07:20.901Z,5.23
2022-12-14T01:09:50.424Z,5.93
2022-12-14T01:12:19.869Z,5.57
2022-12-14T01:14:49.423Z,5.63
2022-12-14T01:17:18.939Z,5.13
2022-12-14T01:19:49.331Z,5.07
2022-12-14T01:22:21.579Z,5.33
2022-12-14T01:24:51.096Z,5.27
2022-12-14T01:27:20.596Z,5.27
2022-12-14T01:29:50.431Z,5.80
2022-12-14T01:32:19.890Z,5.30
2022-12-14T01:34:50.479Z,5.27
2022-12-14T01:37:23.485Z,5.93
2022-12-14T01:39:53.115Z,6.00
2022-12-14T01:42:22.686Z,5.33
2022-12-14T01:44:56.785Z,5.70
2022-12-14T01:47:29.529Z,4.93
2022-12-14T01:50:00.606Z,5.57
2022-12-14T01:52:36.378Z,5.70
2022-12-14T01:55:07.967Z,5.07
2022-12-14T01:57:42.016Z,6.00
2022-12-14T02:00:13.365Z,5.57
2022-12-14T02:02:44.509Z,5.77
2022-12-14T02:05:16.315Z,5.23
2022-12-14T02:07:49.355Z,5.63
2022-12-14T02:10:19.079Z,5.53
2022-12-14T02:12:50.997Z,5.60
2022-12-14T02:15:20.934Z,5.60
2022-12-14T02:17:51.172Z,5.60
2022-12-14T02:20:21.021Z,6.50
2022-12-14T02:23:12.766Z,6.23
2022-12-14T02:25:58.544Z,5.47
2022-12-14T02:28:42.851Z,5.00
2022-12-14T02:31:20.251Z,5.93
2022-12-14T02:33:52.696Z,5.53
2022-12-14T02:36:28.167Z,6.23
2022-12-14T02:39:04.042Z,5.50
2022-12-14T02:41:39.064Z,6.10
2022-12-14T02:44:14.142Z,5.67
2022-12-14T02:46:50.617Z,5.50
2022-12-14T02:49:28.409Z,6.53
2022-12-14T02:52:00.348Z,5.80
2022-12-14T02:54:32.162Z,5.57
2022-12-14T02:57:12.158Z,6.07
2022-12-14T02:59:42.269Z,5.07
2022-12-14T03:02:15.569Z,5.73
2022-12-14T03:04:48.535Z,6.30
2022-12-14T03:07:30.033Z,5.73
2022-12-14T03:10:01.413Z,5.60
2022-12-14T03:12:31.145Z,5.10
2022-12-14T03:15:02.054Z,5.50
2022-12-14T03:17:35.768Z,6.10
2022-12-14T03:20:07.528Z,5.13
2022-12-14T03:22:40.943Z,4.83
2022-12-14T03:25:11.969Z,5.20
2022-12-14T03:27:43.907Z,5.70
2022-12-14T03:30:18.424Z,5.93
2022-12-14T03:32:57.530Z,5.60
2022-12-14T03:35:30.753Z,5.80
2022-12-14T03:38:02.669Z,5.60
2022-12-14T03:40:35.619Z,5.27
2022-12-14T03:43:08.446Z,4.97
2022-12-14T03:45:41.213Z,5.20
2022-12-14T03:48:18.975Z,6.30
2022-12-14T03:50:49.948Z,6.03
2022-12-14T03:53:20.874Z,5.70
2022-12-14T03:55:56.165Z,5.87
2022-12-14T03:58:31.585Z,5.60
2022-12-14T04:01:06.666Z,5.90
2022-12-14T04:03:45.668Z,5.43
2022-12-14T04:06:19.149Z,5.50
2022-12-14T04:08:50.690Z,5.93
2022-12-14T04:11:33.794Z,5.07
2022-12-14T04:14:17.457Z,5.33
2022-12-14T04:17:01.228Z,5.37
2022-12-14T04:19:37.815Z,5.40
2022-12-14T04:22:09.746Z,5.60
2022-12-14T04:24:54.297Z,5.97
2022-12-14T04:27:26.285Z,4.97
2022-12-14T04:29:57.229Z,5.43
2022-12-14T04:32:29.814Z,4.93
2022-12-14T04:35:06.009Z,5.77
2022-12-14T04:37:37.689Z,5.73
2022-12-14T04:40:08.839Z,7.13
2022-12-14T04:42:42.867Z,5.13
2022-12-14T04:45:14.740Z,6.00
2022-12-14T04:47:47.059Z,5.80
2022-12-14T04:50:21.460Z,5.60
2022-12-14T04:52:53.697Z,5.80
2022-12-14T04:55:28.406Z,4.97
2022-12-14T04:58:00.210Z,5.93
2022-12-14T05:00:30.297Z,6.17
2022-12-14T05:03:07.867Z,5.80
2022-12-14T05:05:43.110Z,6.50
2022-12-14T05:08:14.166Z,6.23
2022-12-14T05:10:45.017Z,6.10
2022-12-14T05:13:17.542Z,6.40
2022-12-14T05:15:48.910Z,5.97
2022-12-14T05:18:18.775Z,5.70
2022-12-14T05:20:51.248Z,6.47
2022-12-14T05:23:21.221Z,6.13
2022-12-14T05:25:50.667Z,5.90
2022-12-14T05:28:20.110Z,5.77
2022-12-14T05:30:49.554Z,5.40
2022-12-14T05:33:20.300Z,5.60
2022-12-14T05:35:52.390Z,5.47
2022-12-14T05:38:22.281Z,5.70
2022-12-14T05:40:51.880Z,5.30
2022-12-14T05:43:21.313Z,5.90
2022-12-14T05:45:50.819Z,6.23
2022-12-14T05:48:20.292Z,5.30
2022-12-14T05:50:52.387Z,5.47
2022-12-14T05:53:22.012Z,5.90
2022-12-14T05:55:51.833Z,6.20
2022-12-14T05:58:21.433Z,5.83
2022-12-14T06:00:50.959Z,5.73
2022-12-14T06:03:20.404Z,6.17
2022-12-14T06:05:52.519Z,5.77
2022-12-14T06:08:22.037Z,6.10
2022-12-14T06:10:51.460Z,5.63
2022-12-14T06:13:21.009Z,5.30
2022-12-14T06:15:50.500Z,5.77
2022-12-14T06:18:20.106Z,5.87
2022-12-14T06:20:52.259Z,6.77
2022-12-14T06:23:21.836Z,6.13
2022-12-14T06:25:55.568Z,5.47
2022-12-14T06:28:25.194Z,6.13
2022-12-14T06:30:54.704Z,5.63
2022-12-14T06:33:24.355Z,5.97
2022-12-14T06:35:56.709Z,5.57
2022-12-14T06:38:26.642Z,6.00
2022-12-14T06:40:56.179Z,5.53
2022-12-14T06:43:28.113Z,5.60
2022-12-14T06:45:57.968Z,6.23
2022-12-14T06:48:27.603Z,5.90
2022-12-14T06:51:05.297Z,6.83
2022-12-14T06:53:35.098Z,6.20
2022-12-14T06:56:11.621Z,5.43
2022-12-14T06:58:41.362Z,6.53
2022-12-14T07:01:13.328Z,6.73
2022-12-14T07:03:43.756Z,5.63
2022-12-14T07:06:15.898Z,6.50
2022-12-14T07:08:45.528Z,5.80
2022-12-14T07:11:16.158Z,5.87
2022-12-14T07:13:46.100Z,6.07
2022-12-14T07:16:19.615Z,6.13
2022-12-14T07:18:49.422Z,6.87
2022-12-14T07:21:22.362Z,6.63
2022-12-14T07:23:52.535Z,5.77
2022-12-14T07:26:23.275Z,6.63
2022-12-14T07:28:53.261Z,5.90
2022-12-14T07:31:23.424Z,6.07
2022-12-14T07:33:55.506Z,5.83
2022-12-14T07:36:28.816Z,6.33
2022-12-14T07:38:59.086Z,6.70
2022-12-14T07:41:30.830Z,6.17
2022-12-14T07:44:01.146Z,6.03
2022-12-14T07:46:32.448Z,5.80
2022-12-14T07:49:02.611Z,6.10
2022-12-14T07:51:35.957Z,6.17
2022-12-14T07:54:06.560Z,6.77
2022-12-14T07:56:36.806Z,6.97
2022-12-14T07:59:08.534Z,6.63
2022-12-14T08:01:39.060Z,6.30
2022-12-14T08:04:09.435Z,6.20
2022-12-14T08:06:42.102Z,7.10
2022-12-14T08:09:12.783Z,6.60
2022-12-14T08:11:42.951Z,7.13
2022-12-14T08:14:14.857Z,7.70
2022-12-14T08:16:44.424Z,6.43
2022-12-14T08:19:15.014Z,19.27
2022-12-14T08:21:48.072Z,15.80
2022-12-14T08:24:17.941Z,12.23
2022-12-14T08:26:49.327Z,9.03
2022-12-14T08:29:19.636Z,8.23
2022-12-14T08:31:49.274Z,6.73
2022-12-14T08:34:22.933Z,8.27
2022-12-14T08:36:55.200Z,7.17
2022-12-14T08:39:25.086Z,8.00
2022-12-14T08:41:54.515Z,7.53
2022-12-14T08:44:24.085Z,7.17
2022-12-14T08:46:53.697Z,7.60
2022-12-14T08:49:26.497Z,7.43
2022-12-14T08:52:02.742Z,7.33
2022-12-14T08:54:32.302Z,7.00
2022-12-14T08:57:01.904Z,6.93
2022-12-14T09:00:00.069Z,8.20
2022-12-14T09:02:21.571Z,7.73
2022-12-14T09:04:51.799Z,7.63
2022-12-14T09:07:23.930Z,7.60
2022-12-14T09:09:53.454Z,7.77
2022-12-14T09:12:23.561Z,6.57
2022-12-14T09:14:54.288Z,7.43
2022-12-14T09:17:23.810Z,6.90
2022-12-14T09:19:53.264Z,7.23
2022-12-14T09:22:25.502Z,8.90
2022-12-14T09:24:55.148Z,8.13
2022-12-14T09:27:24.661Z,7.97
2022-12-14T09:29:54.204Z,8.20
2022-12-14T09:32:23.671Z,8.17
2022-12-14T09:34:53.158Z,7.43
2022-12-14T09:37:25.277Z,7.63
2022-12-14T09:39:54.966Z,8.37
2022-12-14T09:42:33.662Z,8.10
2022-12-14T09:45:05.625Z,7.77
2022-12-14T09:47:39.132Z,7.87
2022-12-14T09:50:09.839Z,8.20
2022-12-14T09:52:43.213Z,7.60
2022-12-14T09:55:20.212Z,6.90
2022-12-14T09:57:50.923Z,7.10
2022-12-14T10:00:21.682Z,7.37
2022-12-14T10:03:02.744Z,8.23
2022-12-14T10:05:42.288Z,7.47
2022-12-14T10:08:19.877Z,7.07
2022-12-14T10:10:51.897Z,8.17
2022-12-14T10:13:30.471Z,7.20
2022-12-14T10:16:02.570Z,6.87
2022-12-14T10:19:02.043Z,6.43
2022-12-14T10:21:40.372Z,8.23
2022-12-14T10:24:18.326Z,6.73
2022-12-14T10:26:50.954Z,6.63
2022-12-14T10:29:25.962Z,7.70
2022-12-14T10:31:58.711Z,7.80
2022-12-14T10:34:31.062Z,7.37
2022-12-14T10:37:07.065Z,6.57
2022-12-14T10:39:43.078Z,7.83
2022-12-14T10:42:21.620Z,7.80
2022-12-14T10:45:23.543Z,7.63
2022-12-14T10:47:49.525Z,7.57
2022-12-14T10:50:21.729Z,8.17
2022-12-14T10:52:52.743Z,7.47
2022-12-14T10:55:26.403Z,6.80
2022-12-14T10:57:55.977Z,7.30
2022-12-14T11:00:25.592Z,7.33
2022-12-14T11:02:57.190Z,7.00
2022-12-14T11:05:35.979Z,7.67
2022-12-14T11:08:06.850Z,7.77
2022-12-14T11:10:40.220Z,7.73
2022-12-14T11:13:17.044Z,7.70
2022-12-14T11:15:47.373Z,7.37
2022-12-14T11:18:27.145Z,8.00
2022-12-14T11:20:58.261Z,8.87
2022-12-14T11:23:28.860Z,8.07
2022-12-14T11:26:01.890Z,8.70
2022-12-14T11:28:36.976Z,7.97
2022-12-14T11:31:08.072Z,7.47
2022-12-14T11:33:40.342Z,8.37
2022-12-14T11:36:10.380Z,8.77
2022-12-14T11:38:39.910Z,7.93
2022-12-14T11:41:23.156Z,7.97
2022-12-14T11:44:03.314Z,8.00
2022-12-14T11:46:46.761Z,8.03
2022-12-14T11:49:24.099Z,8.03
2022-12-14T11:51:57.147Z,7.37
2022-12-14T11:54:26.703Z,8.13
2022-12-14T11:57:02.155Z,7.10
2022-12-14T11:59:34.272Z,8.30
2022-12-14T12:02:11.856Z,7.40
2022-12-14T12:04:45.262Z,8.07
2022-12-14T12:07:16.456Z,8.07
2022-12-14T12:09:46.027Z,8.50
2022-12-14T12:12:23.208Z,8.90
2022-12-14T12:14:58.880Z,8.67
2022-12-14T12:17:39.499Z,7.70
2022-12-14T12:20:18.170Z,8.03
2022-12-14T12:22:50.072Z,7.80
2022-12-14T12:25:27.454Z,8.37
2022-12-14T12:28:05.086Z,8.00
2022-12-14T12:30:36.242Z,8.73
2022-12-14T12:33:10.816Z,9.00
2022-12-14T12:35:45.773Z,7.87
2022-12-14T12:38:17.871Z,8.53
2022-12-14T12:40:54.150Z,7.90
2022-12-14T12:43:29.250Z,8.30
2022-12-14T12:46:00.808Z,9.20
2022-12-14T12:48:32.288Z,9.17
2022-12-14T12:51:03.742Z,9.03
2022-12-14T12:53:34.807Z,10.07
2022-12-14T12:56:10.710Z,8.37
2022-12-14T12:58:49.073Z,9.17
2022-12-14T13:01:24.953Z,9.47
2022-12-14T13:03:56.068Z,8.60
2022-12-14T13:06:27.693Z,8.53
2022-12-14T13:08:59.963Z,8.47
2022-12-14T13:11:31.858Z,8.83
2022-12-14T13:14:05.956Z,8.63
2022-12-14T13:16:37.522Z,9.60
2022-12-14T13:19:48.363Z,8.80
2022-12-14T13:22:04.928Z,8.27
2022-12-14T13:24:35.468Z,9.80
2022-12-14T13:27:17.427Z,10.30
2022-12-14T13:29:57.135Z,10.33
2022-12-14T13:32:37.853Z,9.63
2022-12-14T13:35:14.076Z,9.40
2022-12-14T13:37:58.340Z,10.37
2022-12-14T13:40:34.052Z,9.47
2022-12-14T13:43:11.053Z,9.23
2022-12-14T13:45:44.435Z,9.40
2022-12-14T13:48:21.393Z,9.47
2022-12-14T13:51:01.496Z,13.27
2022-12-14T13:53:33.767Z,10.47
2022-12-14T13:56:04.004Z,11.70
2022-12-14T13:58:36.249Z,11.20
2022-12-14T14:01:11.913Z,11.77
2022-12-14T14:03:46.233Z,16.07
2022-12-14T14:06:23.945Z,11.00
2022-12-14T14:08:54.215Z,10.10
2022-12-14T14:11:39.411Z,11.20
2022-12-14T14:14:15.721Z,10.17
2022-12-14T14:16:50.308Z,9.93
2022-12-14T14:19:23.765Z,9.90
2022-12-14T14:24:55.682Z,10.37
2022-12-14T14:27:27.417Z,10.20
2022-12-14T14:29:57.873Z,10.37
2022-12-14T14:32:44.108Z,9.37
2022-12-14T14:35:26.031Z,9.57
2022-12-14T14:37:58.416Z,9.93
2022-12-14T14:40:51.493Z,10.00
2022-12-14T14:43:23.441Z,10.27
2022-12-14T14:45:55.555Z,9.20
2022-12-14T14:48:32.411Z,9.20
2022-12-14T14:51:06.724Z,8.53
2022-12-14T14:53:36.708Z,10.43
2022-12-14T14:56:08.782Z,10.30
2022-12-14T14:58:39.475Z,9.70
2022-12-14T15:01:27.189Z,10.73
2022-12-14T15:04:02.284Z,11.03
2022-12-14T15:06:33.372Z,10.70
2022-12-14T15:09:08.962Z,11.53
2022-12-14T15:11:44.871Z,9.63
2022-12-14T15:14:19.259Z,10.10
2022-12-14T15:16:49.149Z,10.37
2022-12-14T15:19:27.961Z,10.07
2022-12-14T15:21:58.864Z,10.83
2022-12-14T15:24:29.003Z,11.07
2022-12-14T15:26:58.524Z,11.13
2022-12-14T15:29:29.871Z,12.10
2022-12-14T15:32:02.025Z,11.70
2022-12-14T15:34:34.340Z,11.17
2022-12-14T15:37:03.909Z,11.00
2022-12-14T15:39:37.338Z,11.70
2022-12-14T15:42:08.386Z,11.57
2022-12-14T15:44:38.054Z,12.97
2022-12-14T15:47:23.796Z,12.07
2022-12-14T15:49:59.865Z,10.73
2022-12-14T15:52:32.964Z,11.67
2022-12-14T15:55:03.299Z,12.60
2022-12-14T15:57:33.223Z,12.03
2022-12-14T16:00:03.592Z,11.80
2022-12-14T16:02:38.298Z,11.50
2022-12-14T16:05:15.444Z,12.77
2022-12-14T16:07:47.284Z,11.43
2022-12-14T16:10:21.235Z,12.37
2022-12-14T16:12:51.680Z,12.90
2022-12-14T16:15:24.089Z,12.13
2022-12-14T16:18:01.010Z,11.37
2022-12-14T16:20:34.631Z,11.43
2022-12-14T16:23:06.095Z,11.50
2022-12-14T16:25:36.808Z,12.43
2022-12-14T16:28:22.917Z,11.50
2022-12-14T16:30:56.961Z,11.07
2022-12-14T16:33:27.523Z,11.90
2022-12-14T16:36:04.890Z,11.23
2022-12-14T16:38:43.508Z,11.27
2022-12-14T16:41:13.079Z,11.20
2022-12-14T16:43:43.458Z,12.40
2022-12-14T16:46:20.421Z,12.40
2022-12-14T16:49:10.681Z,10.20
2022-12-14T16:52:06.177Z,11.67
2022-12-14T16:54:33.619Z,14.83
2022-12-14T16:57:04.997Z,13.10
2022-12-14T16:59:39.942Z,15.40
2022-12-14T17:02:22.984Z,12.93
2022-12-14T17:04:52.608Z,12.80
2022-12-14T17:07:26.129Z,13.07
2022-12-14T17:09:56.538Z,12.53
2022-12-14T17:12:27.174Z,15.07
2022-12-14T17:14:57.011Z,14.03
2022-12-14T17:17:28.978Z,13.40
2022-12-14T17:19:58.593Z,13.90
2022-12-14T17:22:32.098Z,15.43
2022-12-14T17:25:02.646Z,13.33
2022-12-14T17:27:32.258Z,13.03
2022-12-14T17:30:01.720Z,13.93
2022-12-14T17:32:32.361Z,12.10
2022-12-14T17:35:01.874Z,12.87
2022-12-14T17:37:36.636Z,13.27
2022-12-14T17:40:07.778Z,12.30
2022-12-14T17:42:37.353Z,13.00
2022-12-14T17:45:07.394Z,12.80
2022-12-14T17:47:36.870Z,14.10
2022-12-14T17:50:06.646Z,15.07
2022-12-14T17:52:38.757Z,15.33
2022-12-14T17:55:08.726Z,15.70
2022-12-14T17:57:38.186Z,13.83
2022-12-14T18:00:20.921Z,14.33
2022-12-14T18:02:50.745Z,14.77
2022-12-14T18:05:21.617Z,14.20
2022-12-14T18:07:53.751Z,13.83
2022-12-14T18:10:23.268Z,13.93
2022-12-14T18:12:52.761Z,12.80
2022-12-14T18:15:23.441Z,13.80
2022-12-14T18:17:52.954Z,16.40
2022-12-14T18:20:23.522Z,14.53
2022-12-14T18:22:55.889Z,14.30
2022-12-14T18:25:29.434Z,14.50
2022-12-14T18:27:59.142Z,14.37
2022-12-14T18:30:32.081Z,13.33
2022-12-14T18:33:06.558Z,12.60
2022-12-14T18:35:37.222Z,14.10
2022-12-14T18:38:09.359Z,14.57
2022-12-14T18:40:39.434Z,13.67
2022-12-14T18:43:08.913Z,12.87
2022-12-14T18:45:38.557Z,14.23
2022-12-14T18:48:08.312Z,13.57
2022-12-14T18:50:42.534Z,13.63
2022-12-14T18:53:17.097Z,13.10
2022-12-14T18:55:46.685Z,14.10
2022-12-14T18:58:19.560Z,13.07
2022-12-14T19:00:49.611Z,13.67
2022-12-14T19:03:19.256Z,13.90
2022-12-14T19:05:49.103Z,14.03
2022-12-14T19:08:21.176Z,14.07
2022-12-14T19:10:51.067Z,15.27
2022-12-14T19:13:25.864Z,15.03
2022-12-14T19:15:56.487Z,13.80
2022-12-14T19:18:25.919Z,14.93
2022-12-14T19:20:55.527Z,12.93
2022-12-14T19:23:28.819Z,13.60
2022-12-14T19:26:01.470Z,14.77
2022-12-14T19:28:32.871Z,13.60
2022-12-14T19:31:03.190Z,14.30
2022-12-14T19:33:33.281Z,15.40
2022-12-14T19:36:03.118Z,14.00
2022-12-14T19:38:37.072Z,15.00
2022-12-14T19:41:08.099Z,15.20
2022-12-14T19:43:37.761Z,14.63
2022-12-14T19:46:08.484Z,15.73
2022-12-14T19:48:38.229Z,16.80
2022-12-14T19:51:08.686Z,16.37
2022-12-14T19:53:41.480Z,15.67
2022-12-14T19:56:11.191Z,15.53
2022-12-14T19:58:40.667Z,15.43
2022-12-14T20:01:10.935Z,16.17
2022-12-14T20:03:41.026Z,16.17
2022-12-14T20:06:10.870Z,17.13
2022-12-14T20:08:42.948Z,13.90
2022-12-14T20:11:13.218Z,15.73
2022-12-14T20:13:42.674Z,18.30
2022-12-14T20:16:18.422Z,16.20
2022-12-14T20:18:48.112Z,15.97
2022-12-14T20:21:22.136Z,16.23
2022-12-14T20:23:54.712Z,15.20
2022-12-14T20:26:25.072Z,15.87
2022-12-14T20:28:56.306Z,14.97
2022-12-14T20:31:26.158Z,14.63
2022-12-14T20:33:55.716Z,15.03
2022-12-14T20:36:25.215Z,13.53
2022-12-14T20:39:01.461Z,14.37
2022-12-14T20:41:31.914Z,14.63
2022-12-14T20:44:02.151Z,14.03
2022-12-14T20:46:33.440Z,16.07
2022-12-14T20:49:03.877Z,15.77
2022-12-14T20:51:34.451Z,15.03
2022-12-14T20:54:07.267Z,16.60
2022-12-14T20:56:37.279Z,14.80
2022-12-14T20:59:07.070Z,15.80
2022-12-14T21:01:37.592Z,15.80
2022-12-14T21:04:07.450Z,16.27
2022-12-14T21:06:39.893Z,15.40
2022-12-14T21:09:12.448Z,18.80
2022-12-14T21:11:56.009Z,17.70
2022-12-14T21:14:26.409Z,15.60
2022-12-14T21:16:55.871Z,16.30
2022-12-14T21:19:25.393Z,15.43
2022-12-14T21:21:54.965Z,14.03
2022-12-14T21:27:18.174Z,14.33
2022-12-14T21:29:47.968Z,14.50
2022-12-14T21:32:18.256Z,15.23
2022-12-14T21:34:48.278Z,15.80
2022-12-14T21:37:18.287Z,15.00
2022-12-14T21:39:54.544Z,14.67
2022-12-14T21:42:22.513Z,16.30
2022-12-14T21:44:52.832Z,17.50
2022-12-14T21:47:23.082Z,17.60
2022-12-14T21:49:52.748Z,15.80
2022-12-14T21:52:23.008Z,17.40
2022-12-14T21:54:55.243Z,16.57
2022-12-14T21:57:37.737Z,16.77
2022-12-14T22:00:08.295Z,17.63
2022-12-14T22:02:44.744Z,16.30
2022-12-14T22:05:14.610Z,16.97
2022-12-14T22:07:44.086Z,17.93
2022-12-14T22:10:21.237Z,16.47
2022-12-14T22:12:54.000Z,17.87
2022-12-14T22:15:23.489Z,15.73
2022-12-14T22:17:53.285Z,22.77
2022-12-14T22:20:22.770Z,19.73
2022-12-14T22:22:52.367Z,19.50
2022-12-14T22:25:24.490Z,18.17
2022-12-14T22:27:54.085Z,16.70
2022-12-14T22:30:28.498Z,16.20
2022-12-14T22:33:00.991Z,14.87
2022-12-14T22:35:30.468Z,15.33
2022-12-14T22:37:59.930Z,14.53
2022-12-14T22:40:33.016Z,14.80
2022-12-14T22:43:02.856Z,17.70
2022-12-14T22:45:32.415Z,16.40
2022-12-14T22:48:02.001Z,16.93
2022-12-14T22:50:33.136Z,17.07
2022-12-14T22:53:02.695Z,17.63
2022-12-14T22:55:36.047Z,17.37
2022-12-14T22:58:06.183Z,18.83
2022-12-14T23:00:35.728Z,18.33
2022-12-14T23:03:05.723Z,16.70
2022-12-14T23:05:35.608Z,17.13
2022-12-14T23:08:05.081Z,17.77
2022-12-14T23:10:50.108Z,16.33
2022-12-14T23:13:32.354Z,17.60
2022-12-14T23:16:14.594Z,17.50
2022-12-14T23:18:56.540Z,15.23
2022-12-14T23:21:38.541Z,17.50
2022-12-14T23:24:21.732Z,16.53
2022-12-14T23:27:09.622Z,16.57
2022-12-14T23:29:51.766Z,15.87
2022-12-14T23:32:33.661Z,16.83
2022-12-14T23:35:15.640Z,16.00
2022-12-14T23:37:57.800Z,15.50
2022-12-14T23:40:39.832Z,16.43
2022-12-14T23:43:28.998Z,15.60
2022-12-14T23:46:11.344Z,14.70
2022-12-14T23:48:53.349Z,12.97
2022-12-14T23:51:35.310Z,14.13
2022-12-14T23:54:17.252Z,15.50
2022-12-14T23:56:59.187Z,13.03
2022-12-14T23:59:43.701Z,14.10
